sensor_id;sensor_type;location;lat;lon;timestamp;pressure;altitude;pressure_sealevel;temperature;humidity
5595;BME280;1003;48.002;7.788;2023-08-30T00:01:12;98581.56;;;13.67;100.00
5595;BME280;1003;48.002;7.788;2023-08-30T00:03:41;98584.94;;;13.66;100.00
5595;BME280;1003;48.002;7.788;2023-08-30T00:06:08;98586.03;;;13.59;100.00
5595;BME280;1003;48.002;7.788;2023-08-30T00:08:35;98580.31;;;13.54;100.00
5595;BME280;1003;48.002;7.788;2023-08-30T00:11:02;98577.91;;;13.49;100.00
5595;BME280;1003;48.002;7.788;2023-08-30T00:13:30;98575.53;;;13.45;100.00
5595;BME280;1003;48.002;7.788;2023-08-30T00:15:58;98577.28;;;13.43;100.00
5595;BME280;1003;48.002;7.788;2023-08-30T00:18:25;98574.84;;;13.39;100.00
5595;BME280;1003;48.002;7.788;2023-08-30T00:20:53;98572.38;;;13.38;100.00
5595;BME280;1003;48.002;7.788;2023-08-30T00:23:20;98576.66;;;13.36;100.00
5595;BME280;1003;48.002;7.788;2023-08-30T00:25:47;98576.75;;;13.33;100.00
5595;BME280;1003;48.002;7.788;2023-08-30T00:28:14;98570.09;;;13.30;100.00
5595;BME280;1003;48.002;7.788;2023-08-30T00:30:43;98568.69;;;13.22;100.00
5595;BME280;1003;48.002;7.788;2023-08-30T00:33:10;98567.78;;;13.24;100.00
5595;BME280;1003;48.002;7.788;2023-08-30T00:35:37;98567.13;;;13.16;100.00
5595;BME280;1003;48.002;7.788;2023-08-30T00:38:06;98563.88;;;13.12;100.00
5595;BME280;1003;48.002;7.788;2023-08-30T00:40:38;98559.00;;;13.08;100.00
5595;BME280;1003;48.002;7.788;2023-08-30T00:43:06;98554.09;;;13.03;100.00
5595;BME280;1003;48.002;7.788;2023-08-30T00:45:34;98548.97;;;13.05;100.00
5595;BME280;1003;48.002;7.788;2023-08-30T00:48:05;98556.56;;;13.05;100.00
5595;BME280;1003;48.002;7.788;2023-08-30T00:50:33;98549.13;;;13.00;100.00
5595;BME280;1003;48.002;7.788;2023-08-30T00:53:00;98546.72;;;12.96;100.00
5595;BME280;1003;48.002;7.788;2023-08-30T00:55:32;98552.56;;;12.98;100.00
5595;BME280;1003;48.002;7.788;2023-08-30T00:58:00;98546.78;;;12.94;100.00
5595;BME280;1003;48.002;7.788;2023-08-30T01:00:28;98551.06;;;12.92;100.00
5595;BME280;1003;48.002;7.788;2023-08-30T01:02:55;98552.88;;;12.87;100.00
5595;BME280;1003;48.002;7.788;2023-08-30T01:05:22;98545.28;;;12.88;100.00
5595;BME280;1003;48.002;7.788;2023-08-30T01:07:50;98554.53;;;12.88;100.00
5595;BME280;1003;48.002;7.788;2023-08-30T01:10:24;98542.94;;;12.82;100.00
5595;BME280;1003;48.002;7.788;2023-08-30T01:13:04;98541.28;;;12.81;100.00
5595;BME280;1003;48.002;7.788;2023-08-30T01:15:34;98546.47;;;12.77;100.00
5595;BME280;1003;48.002;7.788;2023-08-30T01:18:04;98540.53;;;12.78;100.00
5595;BME280;1003;48.002;7.788;2023-08-30T01:20:36;98534.03;;;12.71;100.00
5595;BME280;1003;48.002;7.788;2023-08-30T01:23:12;98539.22;;;12.66;100.00
5595;BME280;1003;48.002;7.788;2023-08-30T01:25:55;98537.59;;;12.64;100.00
5595;BME280;1003;48.002;7.788;2023-08-30T01:28:29;98534.38;;;12.58;100.00
5595;BME280;1003;48.002;7.788;2023-08-30T01:30:58;98527.78;;;12.54;100.00
5595;BME280;1003;48.002;7.788;2023-08-30T01:33:27;98525.22;;;12.56;100.00
5595;BME280;1003;48.002;7.788;2023-08-30T01:35:56;98511.00;;;12.53;100.00
5595;BME280;1003;48.002;7.788;2023-08-30T01:38:25;98505.19;;;12.51;100.00
5595;BME280;1003;48.002;7.788;2023-08-30T01:40:54;98500.09;;;12.53;100.00
5595;BME280;1003;48.002;7.788;2023-08-30T01:43:25;98491.75;;;12.51;100.00
5595;BME280;1003;48.002;7.788;2023-08-30T01:45:55;98491.75;;;12.51;100.00
5595;BME280;1003;48.002;7.788;2023-08-30T01:48:24;98491.94;;;12.45;100.00
5595;BME280;1003;48.002;7.788;2023-08-30T01:50:53;98493.56;;;12.46;100.00
5595;BME280;1003;48.002;7.788;2023-08-30T01:53:25;98490.19;;;12.47;100.00
5595;BME280;1003;48.002;7.788;2023-08-30T01:55:52;98488.59;;;12.44;100.00
5595;BME280;1003;48.002;7.788;2023-08-30T01:58:20;98485.25;;;12.44;100.00
5595;BME280;1003;48.002;7.788;2023-08-30T02:00:48;98482.66;;;12.45;100.00
5595;BME280;1003;48.002;7.788;2023-08-30T02:03:15;98481.84;;;12.45;100.00
5595;BME280;1003;48.002;7.788;2023-08-30T02:05:55;98488.59;;;12.44;100.00
5595;BME280;1003;48.002;7.788;2023-08-30T02:08:32;98478.47;;;12.46;100.00
5595;BME280;1003;48.002;7.788;2023-08-30T02:11:07;98484.38;;;12.45;100.00
5595;BME280;1003;48.002;7.788;2023-08-30T02:13:38;98470.28;;;12.38;100.00
5595;BME280;1003;48.002;7.788;2023-08-30T02:16:09;98469.56;;;12.34;100.00
5595;BME280;1003;48.002;7.788;2023-08-30T02:18:37;98465.41;;;12.31;100.00
5595;BME280;1003;48.002;7.788;2023-08-30T02:21:04;98471.38;;;12.29;100.00
5595;BME280;1003;48.002;7.788;2023-08-30T02:23:32;98470.44;;;12.33;100.00
5595;BME280;1003;48.002;7.788;2023-08-30T02:25:59;98468.03;;;12.28;100.00
5595;BME280;1003;48.002;7.788;2023-08-30T02:28:28;98472.34;;;12.25;100.00
5595;BME280;1003;48.002;7.788;2023-08-30T02:30:56;98473.16;;;12.25;100.00
5595;BME280;1003;48.002;7.788;2023-08-30T02:33:24;98467.16;;;12.29;100.00
5595;BME280;1003;48.002;7.788;2023-08-30T02:35:51;98468.03;;;12.28;100.00
5595;BME280;1003;48.002;7.788;2023-08-30T02:38:19;98459.56;;;12.31;100.00
5595;BME280;1003;48.002;7.788;2023-08-30T02:40:46;98467.00;;;12.35;100.00
5595;BME280;1003;48.002;7.788;2023-08-30T02:43:13;98476.28;;;12.33;100.00
5595;BME280;1003;48.002;7.788;2023-08-30T02:45:40;98466.94;;;12.37;100.00
5595;BME280;1003;48.002;7.788;2023-08-30T02:48:07;98464.47;;;12.35;100.00
5595;BME280;1003;48.002;7.788;2023-08-30T02:50:36;98463.59;;;12.37;100.00
5595;BME280;1003;48.002;7.788;2023-08-30T02:53:03;98462.78;;;12.36;100.00
5595;BME280;1003;48.002;7.788;2023-08-30T02:55:31;98458.72;;;12.30;100.00
5595;BME280;1003;48.002;7.788;2023-08-30T02:57:58;98452.81;;;12.31;100.00
5595;BME280;1003;48.002;7.788;2023-08-30T03:00:25;98460.47;;;12.28;100.00
5595;BME280;1003;48.002;7.788;2023-08-30T03:02:52;98458.84;;;12.27;100.00
5595;BME280;1003;48.002;7.788;2023-08-30T03:05:19;98462.25;;;12.25;100.00
5595;BME280;1003;48.002;7.788;2023-08-30T03:07:47;98455.50;;;12.25;100.00
5595;BME280;1003;48.002;7.788;2023-08-30T03:10:14;98459.72;;;12.25;100.00
5595;BME280;1003;48.002;7.788;2023-08-30T03:12:42;98453.94;;;12.21;100.00
5595;BME280;1003;48.002;7.788;2023-08-30T03:15:10;98457.31;;;12.22;100.00
5595;BME280;1003;48.002;7.788;2023-08-30T03:17:37;98459.84;;;12.22;100.00
5595;BME280;1003;48.002;7.788;2023-08-30T03:20:05;98459.84;;;12.20;100.00
5595;BME280;1003;48.002;7.788;2023-08-30T03:22:33;98454.00;;;12.20;100.00
5595;BME280;1003;48.002;7.788;2023-08-30T03:25:01;98454.00;;;12.20;100.00
5595;BME280;1003;48.002;7.788;2023-08-30T03:27:29;98444.03;;;12.17;100.00
5595;BME280;1003;48.002;7.788;2023-08-30T03:29:56;98439.94;;;12.13;100.00
5595;BME280;1003;48.002;7.788;2023-08-30T03:32:23;98436.66;;;12.09;100.00
5595;BME280;1003;48.002;7.788;2023-08-30T03:34:50;98443.44;;;12.07;100.00
5595;BME280;1003;48.002;7.788;2023-08-30T03:37:17;98439.38;;;12.03;100.00
5595;BME280;1003;48.002;7.788;2023-08-30T03:39:44;98444.41;;;12.03;100.00
5595;BME280;1003;48.002;7.788;2023-08-30T03:42:13;98442.69;;;12.03;100.00
5595;BME280;1003;48.002;7.788;2023-08-30T03:44:40;98446.97;;;12.01;100.00
5595;BME280;1003;48.002;7.788;2023-08-30T03:47:07;98441.13;;;12.01;100.00
5595;BME280;1003;48.002;7.788;2023-08-30T03:49:35;98442.75;;;12.02;100.00
5595;BME280;1003;48.002;7.788;2023-08-30T03:52:03;98444.41;;;12.03;100.00
5595;BME280;1003;48.002;7.788;2023-08-30T03:54:30;98442.69;;;12.03;100.00
5595;BME280;1003;48.002;7.788;2023-08-30T03:56:57;98439.38;;;12.03;100.00
5595;BME280;1003;48.002;7.788;2023-08-30T03:59:25;98452.72;;;12.05;100.00
5595;BME280;1003;48.002;7.788;2023-08-30T04:01:54;98451.00;;;12.07;100.00
5595;BME280;1003;48.002;7.788;2023-08-30T04:04:21;98458.50;;;12.08;100.00
5595;BME280;1003;48.002;7.788;2023-08-30T04:06:48;98452.72;;;12.05;100.00
5595;BME280;1003;48.002;7.788;2023-08-30T04:09:15;98450.19;;;12.06;100.00
5595;BME280;1003;48.002;7.788;2023-08-30T04:11:43;98451.00;;;12.07;100.00
5595;BME280;1003;48.002;7.788;2023-08-30T04:14:10;98446.88;;;12.04;100.00
5595;BME280;1003;48.002;7.788;2023-08-30T04:16:38;98453.66;;;12.02;100.00
5595;BME280;1003;48.002;7.788;2023-08-30T04:19:05;98458.75;;;12.01;100.00
5595;BME280;1003;48.002;7.788;2023-08-30T04:21:32;98461.25;;;12.01;100.00
5595;BME280;1003;48.002;7.788;2023-08-30T04:23:59;98462.09;;;12.01;100.00
5595;BME280;1003;48.002;7.788;2023-08-30T04:26:26;98462.84;;;12.03;100.00
5595;BME280;1003;48.002;7.788;2023-08-30T04:28:53;98463.66;;;12.04;100.00
5595;BME280;1003;48.002;7.788;2023-08-30T04:31:20;98461.09;;;12.07;100.00
5595;BME280;1003;48.002;7.788;2023-08-30T04:33:49;98456.06;;;12.07;100.00
5595;BME280;1003;48.002;7.788;2023-08-30T04:36:18;98463.47;;;12.12;100.00
5595;BME280;1003;48.002;7.788;2023-08-30T04:38:45;98459.25;;;12.12;100.00
5595;BME280;1003;48.002;7.788;2023-08-30T04:41:12;98459.97;;;12.17;100.00
5595;BME280;1003;48.002;7.788;2023-08-30T04:43:39;98458.97;;;12.21;100.00
5595;BME280;1003;48.002;7.788;2023-08-30T04:46:06;98458.91;;;12.24;100.00
5595;BME280;1003;48.002;7.788;2023-08-30T04:48:33;98462.13;;;12.29;100.00
5595;BME280;1003;48.002;7.788;2023-08-30T04:51:04;98466.25;;;12.32;100.00
5595;BME280;1003;48.002;7.788;2023-08-30T04:53:31;98472.84;;;12.36;100.00
5595;BME280;1003;48.002;7.788;2023-08-30T04:55:59;98479.53;;;12.37;100.00
5595;BME280;1003;48.002;7.788;2023-08-30T04:58:26;98476.13;;;12.40;100.00
5595;BME280;1003;48.002;7.788;2023-08-30T05:00:56;98486.09;;;12.43;100.00
5595;BME280;1003;48.002;7.788;2023-08-30T05:03:23;98484.97;;;12.53;100.00
5595;BME280;1003;48.002;7.788;2023-08-30T05:05:50;98491.50;;;12.60;100.00
5595;BME280;1003;48.002;7.788;2023-08-30T05:08:18;98500.56;;;12.66;100.00
5595;BME280;1003;48.002;7.788;2023-08-30T05:10:46;98510.41;;;12.73;100.00
5595;BME280;1003;48.002;7.788;2023-08-30T05:13:16;98512.72;;;12.81;100.00
5595;BME280;1003;48.002;7.788;2023-08-30T05:15:43;98524.22;;;12.90;100.00
5595;BME280;1003;48.002;7.788;2023-08-30T05:18:10;98523.94;;;12.99;100.00
5595;BME280;1003;48.002;7.788;2023-08-30T05:20:37;98540.47;;;13.09;100.00
5595;BME280;1003;48.002;7.788;2023-08-30T05:23:04;98544.34;;;13.19;100.00
5595;BME280;1003;48.002;7.788;2023-08-30T05:25:33;98558.53;;;13.23;100.00
5595;BME280;1003;48.002;7.788;2023-08-30T05:28:01;98563.50;;;13.26;100.00
5595;BME280;1003;48.002;7.788;2023-08-30T05:30:29;98565.00;;;13.32;100.00
5595;BME280;1003;48.002;7.788;2023-08-30T05:32:56;98564.72;;;13.41;100.00
5595;BME280;1003;48.002;7.788;2023-08-30T05:35:23;98566.94;;;13.50;100.00
5595;BME280;1003;48.002;7.788;2023-08-30T05:37:50;98568.41;;;13.57;100.00
5595;BME280;1003;48.002;7.788;2023-08-30T05:40:20;98573.94;;;13.69;100.00
5595;BME280;1003;48.002;7.788;2023-08-30T05:42:49;98588.47;;;13.88;100.00
5595;BME280;1003;48.002;7.788;2023-08-30T05:45:16;98589.06;;;13.95;100.00
5595;BME280;1003;48.002;7.788;2023-08-30T05:47:43;98596.03;;;14.13;100.00
5595;BME280;1003;48.002;7.788;2023-08-30T05:50:10;98608.03;;;14.32;100.00
5595;BME280;1003;48.002;7.788;2023-08-30T05:52:37;98613.72;;;14.38;100.00
5595;BME280;1003;48.002;7.788;2023-08-30T05:55:08;98617.44;;;14.53;100.00
5595;BME280;1003;48.002;7.788;2023-08-30T05:57:35;98623.16;;;14.58;100.00
5595;BME280;1003;48.002;7.788;2023-08-30T06:00:05;98631.63;;;14.81;100.00
5595;BME280;1003;48.002;7.788;2023-08-30T06:02:33;98644.31;;;14.79;100.00
5595;BME280;1003;48.002;7.788;2023-08-30T06:05:00;98642.94;;;14.94;100.00
5595;BME280;1003;48.002;7.788;2023-08-30T06:07:31;98660.50;;;14.99;100.00
5595;BME280;1003;48.002;7.788;2023-08-30T06:09:58;98665.09;;;15.11;100.00
5595;BME280;1003;48.002;7.788;2023-08-30T06:12:25;98668.56;;;15.32;100.00
5595;BME280;1003;48.002;7.788;2023-08-30T06:14:53;98678.38;;;15.63;100.00
5595;BME280;1003;48.002;7.788;2023-08-30T06:17:21;98682.06;;;15.76;100.00
5595;BME280;1003;48.002;7.788;2023-08-30T06:19:49;98677.72;;;15.80;100.00
5595;BME280;1003;48.002;7.788;2023-08-30T06:22:16;98678.63;;;15.99;100.00
5595;BME280;1003;48.002;7.788;2023-08-30T06:24:43;98683.38;;;16.07;100.00
5595;BME280;1003;48.002;7.788;2023-08-30T06:27:10;98674.88;;;16.08;100.00
5595;BME280;1003;48.002;7.788;2023-08-30T06:29:37;98670.25;;;15.97;100.00
5595;BME280;1003;48.002;7.788;2023-08-30T06:32:05;98680.34;;;15.98;100.00
5595;BME280;1003;48.002;7.788;2023-08-30T06:34:33;98682.84;;;16.20;100.00
5595;BME280;1003;48.002;7.788;2023-08-30T06:37:00;98674.00;;;16.29;100.00
5595;BME280;1003;48.002;7.788;2023-08-30T06:39:33;98670.75;;;16.46;100.00
5595;BME280;1003;48.002;7.788;2023-08-30T06:42:01;98678.44;;;16.44;100.00
5595;BME280;1003;48.002;7.788;2023-08-30T06:44:28;98676.25;;;16.37;100.00
5595;BME280;1003;48.002;7.788;2023-08-30T06:46:55;98678.09;;;16.33;100.00
5595;BME280;1003;48.002;7.788;2023-08-30T06:49:22;98673.91;;;16.32;100.00
5595;BME280;1003;48.002;7.788;2023-08-30T06:51:51;98680.25;;;16.42;100.00
5595;BME280;1003;48.002;7.788;2023-08-30T06:54:18;98672.84;;;16.77;100.00
5595;BME280;1003;48.002;7.788;2023-08-30T06:56:57;98663.03;;;16.69;100.00
5595;BME280;1003;48.002;7.788;2023-08-30T06:59:25;98667.34;;;17.07;100.00
5595;BME280;1003;48.002;7.788;2023-08-30T07:01:52;98656.03;;;17.31;100.00
5595;BME280;1003;48.002;7.788;2023-08-30T07:04:19;98650.13;;;17.49;100.00
5595;BME280;1003;48.002;7.788;2023-08-30T07:06:46;98650.72;;;17.91;100.00
5595;BME280;1003;48.002;7.788;2023-08-30T07:09:15;98655.44;;;18.16;100.00
5595;BME280;1003;48.002;7.788;2023-08-30T07:11:42;98647.88;;;18.65;100.00
5595;BME280;1003;48.002;7.788;2023-08-30T07:14:11;98642.91;;;18.46;100.00
5595;BME280;1003;48.002;7.788;2023-08-30T07:16:40;98637.19;;;18.58;100.00
5595;BME280;1003;48.002;7.788;2023-08-30T07:19:07;98642.09;;;18.78;100.00
5595;BME280;1003;48.002;7.788;2023-08-30T07:21:35;98635.06;;;18.83;100.00
5595;BME280;1003;48.002;7.788;2023-08-30T07:24:06;98636.19;;;19.09;100.00
5595;BME280;1003;48.002;7.788;2023-08-30T07:26:35;98627.38;;;19.15;100.00
5595;BME280;1003;48.002;7.788;2023-08-30T07:29:03;98634.38;;;19.43;100.00
5595;BME280;1003;48.002;7.788;2023-08-30T07:31:31;98644.22;;;19.95;100.00
5595;BME280;1003;48.002;7.788;2023-08-30T07:33:59;98649.59;;;19.60;100.00
5595;BME280;1003;48.002;7.788;2023-08-30T07:36:26;98638.81;;;19.85;100.00
5595;BME280;1003;48.002;7.788;2023-08-30T07:38:54;98640.06;;;20.08;100.00
5595;BME280;1003;48.002;7.788;2023-08-30T07:41:21;98625.00;;;19.89;100.00
5595;BME280;1003;48.002;7.788;2023-08-30T07:43:49;98618.22;;;19.58;100.00
5595;BME280;1003;48.002;7.788;2023-08-30T07:46:16;98615.88;;;19.85;100.00
5595;BME280;1003;48.002;7.788;2023-08-30T07:48:44;98606.16;;;19.62;100.00
5595;BME280;1003;48.002;7.788;2023-08-30T07:51:11;98611.31;;;19.90;100.00
5595;BME280;1003;48.002;7.788;2023-08-30T07:53:38;98619.97;;;20.18;100.00
5595;BME280;1003;48.002;7.788;2023-08-30T07:56:05;98611.88;;;19.96;100.00
5595;BME280;1003;48.002;7.788;2023-08-30T07:58:33;98613.25;;;20.01;100.00
5595;BME280;1003;48.002;7.788;2023-08-30T08:01:01;98601.44;;;20.14;100.00
5595;BME280;1003;48.002;7.788;2023-08-30T08:03:28;98594.38;;;19.75;100.00
5595;BME280;1003;48.002;7.788;2023-08-30T08:05:58;98609.78;;;19.88;100.00
5595;BME280;1003;48.002;7.788;2023-08-30T08:08:25;98610.03;;;19.83;100.00
5595;BME280;1003;48.002;7.788;2023-08-30T08:10:52;98618.03;;;19.77;100.00
5595;BME280;1003;48.002;7.788;2023-08-30T08:13:19;98617.50;;;19.56;100.00
5595;BME280;1003;48.002;7.788;2023-08-30T08:15:46;98628.25;;;19.77;100.00
5595;BME280;1003;48.002;7.788;2023-08-30T08:18:14;98626.78;;;19.57;100.00
5595;BME280;1003;48.002;7.788;2023-08-30T08:20:42;98629.19;;;19.60;100.00
5595;BME280;1003;48.002;7.788;2023-08-30T08:23:12;98645.63;;;19.55;100.00
5595;BME280;1003;48.002;7.788;2023-08-30T08:25:39;98644.34;;;19.32;100.00
5595;BME280;1003;48.002;7.788;2023-08-30T08:28:06;98649.97;;;19.37;100.00
5595;BME280;1003;48.002;7.788;2023-08-30T08:30:33;98642.19;;;19.08;100.00
5595;BME280;1003;48.002;7.788;2023-08-30T08:33:01;98651.41;;;18.95;100.00
5595;BME280;1003;48.002;7.788;2023-08-30T08:35:29;98658.28;;;19.56;100.00
5595;BME280;1003;48.002;7.788;2023-08-30T08:37:56;98640.88;;;19.33;100.00
5595;BME280;1003;48.002;7.788;2023-08-30T08:40:23;98645.78;;;19.52;100.00
5595;BME280;1003;48.002;7.788;2023-08-30T08:42:51;98651.09;;;20.23;100.00
5595;BME280;1003;48.002;7.788;2023-08-30T08:45:22;98644.13;;;20.55;100.00
5595;BME280;1003;48.002;7.788;2023-08-30T08:47:51;98648.78;;;20.49;100.00
5595;BME280;1003;48.002;7.788;2023-08-30T08:50:18;98636.72;;;20.36;100.00
5595;BME280;1003;48.002;7.788;2023-08-30T08:52:47;98650.97;;;20.40;100.00
5595;BME280;1003;48.002;7.788;2023-08-30T08:55:15;98654.75;;;20.78;100.00
5595;BME280;1003;48.002;7.788;2023-08-30T08:57:44;98650.50;;;21.05;100.00
5595;BME280;1003;48.002;7.788;2023-08-30T09:00:13;98655.28;;;21.38;100.00
5595;BME280;1003;48.002;7.788;2023-08-30T09:02:42;98640.81;;;21.10;100.00
5595;BME280;1003;48.002;7.788;2023-08-30T09:05:10;98635.63;;;20.97;100.00
5595;BME280;1003;48.002;7.788;2023-08-30T09:07:39;98640.41;;;20.89;100.00
5595;BME280;1003;48.002;7.788;2023-08-30T09:10:09;98649.53;;;20.79;100.00
5595;BME280;1003;48.002;7.788;2023-08-30T09:12:36;98655.34;;;21.10;100.00
5595;BME280;1003;48.002;7.788;2023-08-30T09:15:04;98656.44;;;21.06;100.00
5595;BME280;1003;48.002;7.788;2023-08-30T09:17:38;98661.97;;;21.12;100.00
5595;BME280;1003;48.002;7.788;2023-08-30T09:20:08;98650.13;;;21.11;100.00
5595;BME280;1003;48.002;7.788;2023-08-30T09:22:39;98647.00;;;21.20;100.00
5595;BME280;1003;48.002;7.788;2023-08-30T09:25:10;98653.00;;;21.19;100.00
5595;BME280;1003;48.002;7.788;2023-08-30T09:27:37;98644.91;;;21.13;100.00
5595;BME280;1003;48.002;7.788;2023-08-30T09:30:08;98657.84;;;21.24;100.00
5595;BME280;1003;48.002;7.788;2023-08-30T09:32:40;98641.72;;;21.09;100.00
5595;BME280;1003;48.002;7.788;2023-08-30T09:35:09;98642.25;;;21.14;100.00
5595;BME280;1003;48.002;7.788;2023-08-30T09:37:36;98649.00;;;21.30;100.00
5595;BME280;1003;48.002;7.788;2023-08-30T09:40:05;98655.06;;;21.41;100.00
5595;BME280;1003;48.002;7.788;2023-08-30T09:42:34;98647.78;;;21.35;100.00
5595;BME280;1003;48.002;7.788;2023-08-30T09:45:05;98646.13;;;21.48;100.00
5595;BME280;1003;48.002;7.788;2023-08-30T09:47:32;98641.28;;;21.84;100.00
5595;BME280;1003;48.002;7.788;2023-08-30T09:50:02;98639.69;;;21.56;100.00
5595;BME280;1003;48.002;7.788;2023-08-30T09:52:30;98644.81;;;21.68;100.00
5595;BME280;1003;48.002;7.788;2023-08-30T09:54:59;98633.31;;;21.88;100.00
5595;BME280;1003;48.002;7.788;2023-08-30T09:57:28;98640.28;;;21.99;100.00
5595;BME280;1003;48.002;7.788;2023-08-30T09:59:58;98638.72;;;22.23;100.00
5595;BME280;1003;48.002;7.788;2023-08-30T10:02:27;98620.56;;;22.14;100.00
5595;BME280;1003;48.002;7.788;2023-08-30T10:04:54;98616.31;;;22.00;100.00
5595;BME280;1003;48.002;7.788;2023-08-30T10:07:22;98617.91;;;22.15;100.00
5595;BME280;1003;48.002;7.788;2023-08-30T10:09:51;98604.88;;;22.06;100.00
5595;BME280;1003;48.002;7.788;2023-08-30T10:12:20;98597.72;;;22.11;100.00
5595;BME280;1003;48.002;7.788;2023-08-30T10:14:48;98599.47;;;22.36;100.00
5595;BME280;1003;48.002;7.788;2023-08-30T10:17:19;98606.66;;;22.80;100.00
5595;BME280;1003;48.002;7.788;2023-08-30T10:19:51;98598.66;;;23.21;100.00
5595;BME280;1003;48.002;7.788;2023-08-30T10:22:21;98598.94;;;23.05;100.00
5595;BME280;1003;48.002;7.788;2023-08-30T10:24:55;98573.41;;;22.54;100.00
5595;BME280;1003;48.002;7.788;2023-08-30T10:27:24;98584.66;;;22.28;100.00
5595;BME280;1003;48.002;7.788;2023-08-30T10:29:54;98579.00;;;22.23;100.00
5595;BME280;1003;48.002;7.788;2023-08-30T10:32:23;98577.84;;;22.27;100.00
5595;BME280;1003;48.002;7.788;2023-08-30T10:34:51;98570.97;;;22.53;100.00
5595;BME280;1003;48.002;7.788;2023-08-30T10:37:23;98578.97;;;22.98;100.00
5595;BME280;1003;48.002;7.788;2023-08-30T10:39:50;98563.16;;;23.04;100.00
5595;BME280;1003;48.002;7.788;2023-08-30T10:42:23;98564.59;;;22.71;100.00
5595;BME280;1003;48.002;7.788;2023-08-30T10:44:51;98567.06;;;22.97;100.00
5595;BME280;1003;48.002;7.788;2023-08-30T10:47:19;98556.03;;;22.84;100.00
5595;BME280;1003;48.002;7.788;2023-08-30T10:49:49;98555.53;;;22.78;100.00
5595;BME280;1003;48.002;7.788;2023-08-30T10:52:16;98549.53;;;22.67;100.00
5595;BME280;1003;48.002;7.788;2023-08-30T10:54:46;98539.97;;;22.45;100.00
5595;BME280;1003;48.002;7.788;2023-08-30T10:57:15;98544.66;;;22.51;100.00
5595;BME280;1003;48.002;7.788;2023-08-30T11:00:05;98543.19;;;22.23;100.00
5595;BME280;1003;48.002;7.788;2023-08-30T11:02:33;98535.69;;;21.82;100.00
5595;BME280;1003;48.002;7.788;2023-08-30T11:05:06;98542.13;;;22.00;100.00
5595;BME280;1003;48.002;7.788;2023-08-30T11:07:33;98529.44;;;21.98;100.00
5595;BME280;1003;48.002;7.788;2023-08-30T11:10:01;98519.41;;;21.83;100.00
5595;BME280;1003;48.002;7.788;2023-08-30T11:12:33;98531.38;;;22.20;100.00
5595;BME280;1003;48.002;7.788;2023-08-30T11:15:01;98532.19;;;22.34;100.00
5595;BME280;1003;48.002;7.788;2023-08-30T11:17:29;98526.66;;;22.40;100.00
5595;BME280;1003;48.002;7.788;2023-08-30T11:20:08;98524.91;;;22.40;100.00
5595;BME280;1003;48.002;7.788;2023-08-30T11:22:37;98513.19;;;22.49;100.00
5595;BME280;1003;48.002;7.788;2023-08-30T11:25:05;98522.22;;;22.78;100.00
5595;BME280;1003;48.002;7.788;2023-08-30T11:27:34;98515.09;;;22.71;100.00
5595;BME280;1003;48.002;7.788;2023-08-30T11:30:01;98513.59;;;22.79;100.00
5595;BME280;1003;48.002;7.788;2023-08-30T11:32:33;98448.50;;;23.06;100.00
5595;BME280;1003;48.002;7.788;2023-08-30T11:35:00;98540.03;;;22.80;100.00
5595;BME280;1003;48.002;7.788;2023-08-30T11:37:29;98546.72;;;22.83;100.00
5595;BME280;1003;48.002;7.788;2023-08-30T11:39:58;98534.16;;;22.67;100.00
5595;BME280;1003;48.002;7.788;2023-08-30T11:42:26;98518.47;;;22.35;100.00
5595;BME280;1003;48.002;7.788;2023-08-30T11:44:53;98523.59;;;22.09;100.00
5595;BME280;1003;48.002;7.788;2023-08-30T11:47:22;98525.97;;;22.25;100.00
5595;BME280;1003;48.002;7.788;2023-08-30T11:49:52;98537.38;;;22.94;100.00
5595;BME280;1003;48.002;7.788;2023-08-30T11:52:21;98521.06;;;23.19;100.00
5595;BME280;1003;48.002;7.788;2023-08-30T11:54:51;98519.56;;;23.28;100.00
5595;BME280;1003;48.002;7.788;2023-08-30T11:57:19;98519.31;;;23.20;100.00
5595;BME280;1003;48.002;7.788;2023-08-30T11:59:46;98519.97;;;22.74;100.00
5595;BME280;1003;48.002;7.788;2023-08-30T12:02:17;98516.03;;;22.94;100.00
5595;BME280;1003;48.002;7.788;2023-08-30T12:04:46;98520.00;;;23.22;100.00
5595;BME280;1003;48.002;7.788;2023-08-30T12:07:21;98508.41;;;23.51;100.00
5595;BME280;1003;48.002;7.788;2023-08-30T12:09:50;98506.56;;;23.18;100.00
5595;BME280;1003;48.002;7.788;2023-08-30T12:12:18;98506.84;;;23.26;100.00
5595;BME280;1003;48.002;7.788;2023-08-30T12:14:54;98493.63;;;23.09;100.00
5595;BME280;1003;48.002;7.788;2023-08-30T12:17:22;98487.16;;;22.79;100.00
5595;BME280;1003;48.002;7.788;2023-08-30T12:19:55;98491.22;;;23.29;100.00
5595;BME280;1003;48.002;7.788;2023-08-30T12:22:22;98492.88;;;23.30;100.00
5595;BME280;1003;48.002;7.788;2023-08-30T12:24:51;98480.16;;;22.94;100.00
5595;BME280;1003;48.002;7.788;2023-08-30T12:27:18;98479.34;;;22.33;100.00
5595;BME280;1003;48.002;7.788;2023-08-30T12:29:46;98475.56;;;22.00;100.00
5595;BME280;1003;48.002;7.788;2023-08-30T12:32:13;98480.63;;;22.14;100.00
5595;BME280;1003;48.002;7.788;2023-08-30T12:34:39;98477.25;;;22.01;100.00
5595;BME280;1003;48.002;7.788;2023-08-30T12:37:07;98483.78;;;22.18;100.00
5595;BME280;1003;48.002;7.788;2023-08-30T12:39:34;98493.81;;;22.58;100.00
5595;BME280;1003;48.002;7.788;2023-08-30T12:42:02;98493.03;;;23.05;100.00
5595;BME280;1003;48.002;7.788;2023-08-30T12:44:30;98492.38;;;23.14;100.00
5595;BME280;1003;48.002;7.788;2023-08-30T12:46:57;98492.63;;;23.34;100.00
5595;BME280;1003;48.002;7.788;2023-08-30T12:49:24;98485.75;;;23.69;100.00
5595;BME280;1003;48.002;7.788;2023-08-30T12:51:51;98484.34;;;23.76;100.00
5595;BME280;1003;48.002;7.788;2023-08-30T12:54:18;98471.09;;;23.47;100.00
5595;BME280;1003;48.002;7.788;2023-08-30T12:56:45;98468.81;;;23.67;100.00
5595;BME280;1003;48.002;7.788;2023-08-30T12:59:14;98473.69;;;23.58;100.00
5595;BME280;1003;48.002;7.788;2023-08-30T13:01:41;98467.50;;;23.50;100.00
5595;BME280;1003;48.002;7.788;2023-08-30T13:04:08;98476.59;;;23.54;100.00
5595;BME280;1003;48.002;7.788;2023-08-30T13:06:35;98476.91;;;23.38;100.00
5595;BME280;1003;48.002;7.788;2023-08-30T13:09:02;98487.28;;;23.37;100.00
5595;BME280;1003;48.002;7.788;2023-08-30T13:11:30;98481.41;;;23.23;100.00
5595;BME280;1003;48.002;7.788;2023-08-30T13:13:58;98474.31;;;22.92;100.00
5595;BME280;1003;48.002;7.788;2023-08-30T13:16:26;98473.06;;;22.97;100.00